Time;durP1;ratioP1;P1;durP2;ratioP2;P2;SDS_P1;SDS_P2;PMS_P1;PMS_P2;Temp;Humidity;BMP_temperature;BMP_pressure;BME280_temperature;BME280_humidity;BME280_pressure;Samples;Min_cycle;Max_cycle;Signal;HPM_P1;HPM_P2
2023/04/12 00:02:26;;;;;;;6.30;1.80;;;;;;;;;;5066222;28;20061;-54
2023/04/12 00:04:56;;;;;;;5.07;1.83;;;;;;;;;;5064702;28;20041;-54
2023/04/12 00:07:23;;;;;;;6.18;2.08;;;;;;;;;;5065563;28;20537;-56
2023/04/12 00:09:50;;;;;;;10.15;2.00;;;;;;;;;;5063735;28;20049;-53
2023/04/12 00:12:18;;;;;;;6.57;1.73;;;;;;;;;;5065700;28;20847;-55
2023/04/12 00:14:45;;;;;;;7.65;2.22;;;;;;;;;;5064664;28;20049;-55
2023/04/12 00:17:11;;;;;;;8.88;2.47;;;;;;;;;;5050729;28;20145;-56
2023/04/12 00:19:41;;;;;;;6.75;2.35;;;;;;;;;;5063782;28;20049;-54
2023/04/12 00:22:08;;;;;;;5.20;2.20;;;;;;;;;;5046037;28;20058;-52
2023/04/12 00:24:34;;;;;;;2.80;1.58;;;;;;;;;;5047039;28;20049;-53
2023/04/12 00:27:01;;;;;;;5.13;1.67;;;;;;;;;;5065743;28;20172;-55
2023/04/12 00:29:27;;;;;;;5.93;2.22;;;;;;;;;;5056636;28;20108;-54
2023/04/12 00:31:53;;;;;;;4.43;1.60;;;;;;;;;;5063196;28;20079;-55
2023/04/12 00:34:20;;;;;;;9.07;1.83;;;;;;;;;;5065588;28;20064;-56
2023/04/12 00:36:46;;;;;;;5.15;1.60;;;;;;;;;;5054599;28;20140;-53
2023/04/12 00:39:12;;;;;;;4.13;1.10;;;;;;;;;;5060142;28;20695;-55
2023/04/12 00:41:39;;;;;;;6.38;1.70;;;;;;;;;;5063667;28;20056;-55
2023/04/12 00:44:06;;;;;;;3.10;1.05;;;;;;;;;;5066555;28;20511;-55
2023/04/12 00:46:33;;;;;;;4.03;1.83;;;;;;;;;;5066023;28;20053;-55
2023/04/12 00:48:59;;;;;;;3.42;1.20;;;;;;;;;;5053282;28;20516;-51
2023/04/12 00:51:26;;;;;;;5.72;0.82;;;;;;;;;;5059929;28;20053;-55
2023/04/12 00:53:53;;;;;;;3.00;1.33;;;;;;;;;;5059335;28;21014;-50
2023/04/12 00:56:22;;;;;;;1.95;0.93;;;;;;;;;;5061933;28;20064;-56
2023/04/12 00:58:48;;;;;;;2.63;1.00;;;;;;;;;;5060214;28;20199;-52
2023/04/12 01:01:15;;;;;;;2.97;0.90;;;;;;;;;;5069329;28;20049;-54
2023/04/12 01:03:42;;;;;;;1.80;0.80;;;;;;;;;;5062596;28;20553;-50
2023/04/12 01:06:09;;;;;;;4.35;1.10;;;;;;;;;;5065872;28;20080;-54
2023/04/12 01:08:52;;;;;;;2.83;1.20;;;;;;;;;;5076261;28;20535;-54
2023/04/12 01:11:22;;;;;;;2.65;1.10;;;;;;;;;;5061908;28;20797;-51
2023/04/12 01:14:02;;;;;;;3.90;1.27;;;;;;;;;;5061052;28;20590;-50
2023/04/12 01:16:28;;;;;;;3.50;1.48;;;;;;;;;;5055086;28;20049;-49
2023/04/12 01:18:58;;;;;;;6.00;1.48;;;;;;;;;;5065726;28;20048;-49
2023/04/12 01:21:33;;;;;;;4.22;1.58;;;;;;;;;;5065532;28;20478;-49
2023/04/12 01:24:00;;;;;;;7.55;1.60;;;;;;;;;;5051173;28;20057;-53
2023/04/12 01:26:40;;;;;;;2.42;1.30;;;;;;;;;;5053492;28;20550;-53
2023/04/12 01:29:18;;;;;;;6.90;1.80;;;;;;;;;;5056380;28;20072;-54
2023/04/12 01:31:57;;;;;;;5.57;2.20;;;;;;;;;;5067757;28;20053;-55
2023/04/12 01:34:25;;;;;;;2.97;1.73;;;;;;;;;;5055173;28;20053;-55
2023/04/12 01:36:51;;;;;;;6.57;1.80;;;;;;;;;;5058879;28;20627;-54
2023/04/12 01:39:18;;;;;;;2.03;1.40;;;;;;;;;;5063904;28;20052;-53
2023/04/12 01:41:47;;;;;;;4.35;1.85;;;;;;;;;;5064767;28;20060;-53
2023/04/12 01:44:15;;;;;;;3.50;1.42;;;;;;;;;;5051087;28;20057;-51
2023/04/12 01:46:42;;;;;;;4.75;1.75;;;;;;;;;;5060287;28;20472;-50
2023/04/12 01:49:10;;;;;;;3.63;1.60;;;;;;;;;;5065352;28;20931;-55
2023/04/12 01:51:54;;;;;;;3.30;1.17;;;;;;;;;;5064846;28;20136;-54
2023/04/12 01:54:22;;;;;;;7.20;1.83;;;;;;;;;;5059204;28;20052;-54
2023/04/12 01:56:49;;;;;;;4.80;1.45;;;;;;;;;;5062818;28;20578;-52
2023/04/12 01:59:16;;;;;;;2.90;1.65;;;;;;;;;;5064236;28;20524;-51
2023/04/12 02:01:43;;;;;;;5.30;1.58;;;;;;;;;;5052825;28;20053;-53
2023/04/12 02:04:10;;;;;;;6.25;1.70;;;;;;;;;;5063776;28;20055;-51
2023/04/12 02:06:37;;;;;;;4.97;1.42;;;;;;;;;;5065312;28;20106;-52
2023/04/12 02:09:06;;;;;;;7.03;2.25;;;;;;;;;;5073974;28;20104;-53
2023/04/12 02:11:33;;;;;;;5.38;1.80;;;;;;;;;;5084218;28;20591;-53
2023/04/12 02:13:59;;;;;;;2.20;1.35;;;;;;;;;;5074145;28;20049;-54
2023/04/12 02:16:28;;;;;;;2.78;1.40;;;;;;;;;;5064245;28;20103;-51
2023/04/12 02:18:58;;;;;;;9.25;1.40;;;;;;;;;;5050275;28;20092;-54
2023/04/12 02:21:26;;;;;;;4.50;1.45;;;;;;;;;;5080937;28;20474;-54
2023/04/12 02:23:52;;;;;;;7.40;1.92;;;;;;;;;;5067660;28;20068;-55
2023/04/12 02:26:19;;;;;;;4.88;1.42;;;;;;;;;;5067963;28;20061;-53
2023/04/12 02:28:46;;;;;;;3.25;1.60;;;;;;;;;;5065446;28;20056;-52
2023/04/12 02:31:14;;;;;;;3.60;1.50;;;;;;;;;;5056592;28;20056;-52
2023/04/12 02:33:41;;;;;;;3.92;1.50;;;;;;;;;;5057723;28;20140;-54
2023/04/12 02:36:09;;;;;;;3.95;1.40;;;;;;;;;;5068643;28;20057;-54
2023/04/12 02:38:35;;;;;;;7.28;1.90;;;;;;;;;;5056664;28;20530;-54
2023/04/12 02:41:01;;;;;;;4.22;1.73;;;;;;;;;;5048283;28;20515;-54
2023/04/12 02:43:28;;;;;;;5.03;1.42;;;;;;;;;;5064172;28;20045;-55
2023/04/12 02:45:54;;;;;;;6.03;1.75;;;;;;;;;;5066529;28;20073;-53
2023/04/12 02:48:21;;;;;;;5.07;1.50;;;;;;;;;;5052517;28;20054;-55
2023/04/12 02:50:47;;;;;;;4.40;1.73;;;;;;;;;;5059722;28;20060;-56
2023/04/12 02:53:14;;;;;;;2.78;1.85;;;;;;;;;;5071918;28;20052;-52
2023/04/12 02:55:41;;;;;;;5.63;1.42;;;;;;;;;;5084207;28;20610;-52
2023/04/12 02:58:07;;;;;;;7.68;1.45;;;;;;;;;;5067280;28;20076;-53
2023/04/12 03:00:34;;;;;;;5.00;1.73;;;;;;;;;;5070866;28;20052;-50
2023/04/12 03:03:02;;;;;;;4.13;1.40;;;;;;;;;;5082080;28;20056;-49
2023/04/12 03:05:29;;;;;;;3.22;1.48;;;;;;;;;;5066799;28;20061;-53
2023/04/12 03:07:55;;;;;;;3.97;1.60;;;;;;;;;;5059805;28;20053;-53
2023/04/12 03:10:21;;;;;;;7.35;1.67;;;;;;;;;;5047533;28;20451;-53
2023/04/12 03:12:48;;;;;;;4.57;1.80;;;;;;;;;;5060465;28;20053;-51
2023/04/12 03:15:14;;;;;;;3.85;1.30;;;;;;;;;;5066120;28;20088;-49
2023/04/12 03:17:41;;;;;;;5.03;2.00;;;;;;;;;;5066768;28;20057;-53
2023/04/12 03:20:08;;;;;;;6.30;1.73;;;;;;;;;;5067450;28;20049;-52
2023/04/12 03:22:36;;;;;;;6.15;1.90;;;;;;;;;;5065077;28;20061;-55
2023/04/12 03:25:03;;;;;;;7.05;2.28;;;;;;;;;;5079082;28;20086;-52
2023/04/12 03:27:29;;;;;;;2.20;1.40;;;;;;;;;;5075632;28;20057;-53
2023/04/12 03:29:56;;;;;;;3.17;1.45;;;;;;;;;;5066817;28;20089;-53
2023/04/12 03:32:23;;;;;;;7.32;1.98;;;;;;;;;;5052977;28;20570;-53
2023/04/12 03:34:49;;;;;;;5.22;1.75;;;;;;;;;;5066058;28;20107;-50
2023/04/12 03:37:16;;;;;;;6.65;1.52;;;;;;;;;;5073695;28;20059;-54
2023/04/12 03:39:46;;;;;;;3.35;1.67;;;;;;;;;;5066629;28;20053;-54
2023/04/12 03:42:13;;;;;;;3.00;1.83;;;;;;;;;;5071923;28;20049;-54
2023/04/12 03:44:57;;;;;;;5.32;1.42;;;;;;;;;;5077145;28;20053;-54
2023/04/12 03:47:24;;;;;;;3.47;1.35;;;;;;;;;;5070678;28;20057;-53
2023/04/12 03:49:53;;;;;;;6.20;1.83;;;;;;;;;;5061097;28;20064;-50
2023/04/12 03:52:36;;;;;;;6.18;1.70;;;;;;;;;;5058754;28;20080;-53
2023/04/12 03:55:04;;;;;;;3.70;2.03;;;;;;;;;;5068153;28;20053;-52
2023/04/12 03:57:31;;;;;;;2.67;1.58;;;;;;;;;;5066595;28;20096;-54
2023/04/12 03:59:57;;;;;;;3.95;1.50;;;;;;;;;;5067111;28;20049;-53
2023/04/12 04:02:24;;;;;;;8.70;2.67;;;;;;;;;;5072769;28;20044;-48
2023/04/12 04:04:50;;;;;;;8.20;1.88;;;;;;;;;;5070159;28;20057;-50
2023/04/12 04:07:17;;;;;;;6.65;2.00;;;;;;;;;;5072598;28;20515;-51
2023/04/12 04:09:43;;;;;;;5.85;2.17;;;;;;;;;;5048903;28;20156;-50
2023/04/12 04:12:09;;;;;;;2.95;1.48;;;;;;;;;;5046590;28;20521;-53
2023/04/12 04:14:36;;;;;;;3.63;1.73;;;;;;;;;;5050566;28;20056;-54
2023/04/12 04:17:02;;;;;;;2.70;1.27;;;;;;;;;;5065299;28;20135;-50
2023/04/12 04:19:28;;;;;;;3.53;2.30;;;;;;;;;;5070019;28;20055;-50
2023/04/12 04:21:55;;;;;;;3.22;1.60;;;;;;;;;;5065904;28;20057;-52
2023/04/12 04:24:23;;;;;;;2.40;1.52;;;;;;;;;;5066442;28;20147;-49
2023/04/12 04:26:53;;;;;;;4.10;1.75;;;;;;;;;;5063112;28;20709;-54
2023/04/12 04:29:19;;;;;;;4.38;2.00;;;;;;;;;;5053629;28;20089;-53
2023/04/12 04:31:46;;;;;;;2.90;1.50;;;;;;;;;;5080691;28;20132;-49
2023/04/12 04:34:12;;;;;;;2.30;1.30;;;;;;;;;;5064313;28;20049;-50
2023/04/12 04:36:40;;;;;;;2.95;1.50;;;;;;;;;;5057239;28;20140;-54
2023/04/12 04:39:07;;;;;;;6.18;1.80;;;;;;;;;;5045321;28;20061;-52
2023/04/12 04:41:38;;;;;;;2.58;1.40;;;;;;;;;;5057497;28;20049;-54
2023/04/12 04:44:09;;;;;;;4.03;1.63;;;;;;;;;;5051089;28;22007;-50
2023/04/12 04:46:36;;;;;;;6.95;2.20;;;;;;;;;;5064266;28;20565;-49
2023/04/12 04:49:04;;;;;;;3.63;2.10;;;;;;;;;;5065569;28;20057;-50
2023/04/12 04:51:30;;;;;;;4.05;1.63;;;;;;;;;;5051699;28;20112;-50
2023/04/12 04:53:57;;;;;;;2.25;1.70;;;;;;;;;;5045276;28;20057;-49
2023/04/12 04:56:24;;;;;;;2.50;1.80;;;;;;;;;;5049365;28;20085;-49
2023/04/12 04:58:50;;;;;;;5.68;2.10;;;;;;;;;;5049116;28;20160;-48
2023/04/12 05:01:18;;;;;;;3.00;1.70;;;;;;;;;;5064737;28;20056;-49
2023/04/12 05:03:44;;;;;;;5.35;1.85;;;;;;;;;;5064870;28;20084;-52
2023/04/12 05:06:10;;;;;;;2.42;1.73;;;;;;;;;;5070137;28;20065;-52
2023/04/12 05:08:37;;;;;;;2.03;1.65;;;;;;;;;;5045607;28;20524;-53
2023/04/12 05:11:03;;;;;;;4.15;1.83;;;;;;;;;;5067793;28;20146;-51
2023/04/12 05:13:29;;;;;;;4.07;1.90;;;;;;;;;;5050046;28;20108;-53
2023/04/12 05:15:56;;;;;;;5.13;1.88;;;;;;;;;;5046559;28;20053;-55
2023/04/12 05:18:22;;;;;;;5.25;2.22;;;;;;;;;;5045179;28;20145;-52
2023/04/12 05:20:49;;;;;;;3.45;2.50;;;;;;;;;;5058870;28;20056;-53
2023/04/12 05:23:16;;;;;;;3.03;1.67;;;;;;;;;;5050764;28;20104;-54
2023/04/12 05:25:43;;;;;;;3.42;1.88;;;;;;;;;;5046738;28;20057;-51
2023/04/12 05:28:12;;;;;;;4.50;1.80;;;;;;;;;;5063104;28;20072;-53
2023/04/12 05:30:39;;;;;;;2.20;1.85;;;;;;;;;;5065216;28;20049;-49
2023/04/12 05:33:06;;;;;;;2.47;1.85;;;;;;;;;;5070643;28;20063;-50
2023/04/12 05:35:32;;;;;;;2.58;2.10;;;;;;;;;;5060167;28;20054;-54
2023/04/12 05:37:58;;;;;;;3.38;1.80;;;;;;;;;;5065621;28;20153;-49
2023/04/12 05:40:25;;;;;;;4.38;2.05;;;;;;;;;;5065488;28;20057;-50
2023/04/12 05:42:51;;;;;;;3.70;2.20;;;;;;;;;;5065552;28;20918;-52
2023/04/12 05:45:17;;;;;;;1.90;1.70;;;;;;;;;;5070706;28;20057;-51
2023/04/12 05:47:44;;;;;;;4.57;1.98;;;;;;;;;;5050619;28;20061;-51
2023/04/12 05:50:11;;;;;;;3.28;2.20;;;;;;;;;;5046055;28;20059;-51
2023/04/12 05:52:37;;;;;;;3.80;2.20;;;;;;;;;;5063005;28;20546;-53
2023/04/12 05:55:04;;;;;;;5.72;2.28;;;;;;;;;;5067712;28;20507;-52
2023/04/12 05:57:30;;;;;;;5.13;1.90;;;;;;;;;;5065171;28;20057;-53
2023/04/12 05:59:56;;;;;;;3.03;1.92;;;;;;;;;;5061870;28;20552;-54
2023/04/12 06:02:24;;;;;;;2.78;2.10;;;;;;;;;;5066716;28;20049;-51
2023/04/12 06:04:52;;;;;;;3.60;2.22;;;;;;;;;;5059454;28;20060;-50
2023/04/12 06:07:20;;;;;;;2.92;2.13;;;;;;;;;;5078035;28;20053;-54
2023/04/12 06:09:47;;;;;;;4.53;1.98;;;;;;;;;;5066597;28;20558;-51
2023/04/12 06:12:13;;;;;;;3.78;2.15;;;;;;;;;;5048455;28;20136;-54
2023/04/12 06:14:39;;;;;;;2.05;1.92;;;;;;;;;;5066903;28;20049;-53
2023/04/12 06:17:06;;;;;;;3.38;1.73;;;;;;;;;;5069301;28;20056;-53
2023/04/12 06:19:32;;;;;;;1.75;1.60;;;;;;;;;;5077978;28;20516;-49
2023/04/12 06:21:58;;;;;;;1.75;1.63;;;;;;;;;;5064882;28;20140;-53
2023/04/12 06:24:25;;;;;;;3.75;2.00;;;;;;;;;;5048965;28;20495;-48
2023/04/12 06:26:51;;;;;;;3.83;1.90;;;;;;;;;;5068323;28;20048;-53
2023/04/12 06:29:17;;;;;;;3.40;1.67;;;;;;;;;;5050308;28;20061;-54
2023/04/12 06:31:44;;;;;;;4.72;2.20;;;;;;;;;;5062605;28;20064;-50
2023/04/12 06:34:10;;;;;;;5.43;2.88;;;;;;;;;;5054893;28;20134;-52
2023/04/12 06:36:38;;;;;;;4.85;2.25;;;;;;;;;;5067975;28;20088;-53
2023/04/12 06:39:05;;;;;;;6.30;2.30;;;;;;;;;;5067820;28;20052;-51
2023/04/12 06:41:31;;;;;;;5.38;2.70;;;;;;;;;;5064470;28;20143;-51
2023/04/12 06:43:58;;;;;;;3.92;2.65;;;;;;;;;;5088609;28;20059;-52
2023/04/12 06:46:28;;;;;;;2.47;2.08;;;;;;;;;;5067357;28;20137;-54
2023/04/12 06:48:55;;;;;;;2.72;2.53;;;;;;;;;;5080015;28;20136;-49
2023/04/12 06:51:21;;;;;;;4.80;2.50;;;;;;;;;;5063976;28;20057;-53
2023/04/12 06:53:47;;;;;;;3.38;2.25;;;;;;;;;;5080710;28;20056;-53
2023/04/12 06:56:14;;;;;;;6.32;2.67;;;;;;;;;;5088275;28;20365;-51
2023/04/12 06:58:43;;;;;;;2.95;2.42;;;;;;;;;;5077689;28;20056;-54
2023/04/12 07:01:10;;;;;;;5.95;2.60;;;;;;;;;;5075336;28;20544;-53
2023/04/12 07:03:36;;;;;;;7.78;3.00;;;;;;;;;;5068623;28;20503;-54
2023/04/12 07:06:03;;;;;;;6.70;2.70;;;;;;;;;;5057208;28;20049;-53
2023/04/12 07:08:49;;;;;;;8.05;3.30;;;;;;;;;;5063586;28;20084;-53
2023/04/12 07:11:15;;;;;;;2.83;2.53;;;;;;;;;;5064250;28;20091;-53
2023/04/12 07:13:47;;;;;;;3.83;2.90;;;;;;;;;;5068767;28;20048;-53
2023/04/12 07:16:13;;;;;;;3.88;2.63;;;;;;;;;;5070254;28;20053;-50
2023/04/12 07:18:40;;;;;;;6.53;2.60;;;;;;;;;;5077258;28;20053;-52
2023/04/12 07:21:06;;;;;;;4.10;3.03;;;;;;;;;;5064049;28;20585;-54
2023/04/12 07:23:33;;;;;;;5.75;3.15;;;;;;;;;;5057048;28;20053;-52
2023/04/12 07:26:00;;;;;;;6.20;2.83;;;;;;;;;;5057047;28;20601;-54
2023/04/12 07:28:27;;;;;;;5.50;3.15;;;;;;;;;;5067521;28;20499;-54
2023/04/12 07:30:53;;;;;;;9.30;3.28;;;;;;;;;;5057675;28;20048;-53
2023/04/12 07:33:19;;;;;;;8.38;3.55;;;;;;;;;;5064565;28;22389;-53
2023/04/12 07:35:46;;;;;;;6.40;3.42;;;;;;;;;;5060947;28;20052;-56
2023/04/12 07:38:12;;;;;;;7.50;3.55;;;;;;;;;;5068443;28;20052;-55
2023/04/12 07:40:41;;;;;;;10.98;3.70;;;;;;;;;;5069316;28;20053;-52
2023/04/12 07:43:08;;;;;;;5.43;3.17;;;;;;;;;;5075693;28;20053;-56
2023/04/12 07:45:37;;;;;;;8.70;4.07;;;;;;;;;;5081078;28;20056;-54
2023/04/12 07:48:04;;;;;;;6.57;3.70;;;;;;;;;;5070845;28;20057;-50
2023/04/12 07:50:30;;;;;;;4.22;3.25;;;;;;;;;;5079376;28;20048;-53
2023/04/12 07:53:15;;;;;;;8.10;4.05;;;;;;;;;;5079933;28;20104;-50
2023/04/12 07:55:42;;;;;;;8.38;3.63;;;;;;;;;;5066992;28;20583;-49
2023/04/12 07:58:08;;;;;;;13.75;4.38;;;;;;;;;;5067041;28;20102;-49
2023/04/12 08:00:35;;;;;;;12.00;4.05;;;;;;;;;;5066695;28;20772;-52
2023/04/12 08:03:01;;;;;;;11.38;4.15;;;;;;;;;;5067153;28;20569;-52
2023/04/12 08:05:27;;;;;;;7.38;4.05;;;;;;;;;;5067004;28;20063;-51
2023/04/12 08:07:54;;;;;;;10.23;3.50;;;;;;;;;;5067586;28;20136;-50
2023/04/12 08:10:21;;;;;;;10.10;3.83;;;;;;;;;;5070931;28;20056;-49
2023/04/12 08:12:47;;;;;;;12.10;3.90;;;;;;;;;;5064219;28;20048;-54
2023/04/12 08:15:14;;;;;;;13.75;3.70;;;;;;;;;;5067324;28;20057;-50
2023/04/12 08:17:42;;;;;;;11.70;3.65;;;;;;;;;;5068679;28;20087;-52
2023/04/12 08:20:09;;;;;;;16.27;4.65;;;;;;;;;;5069536;28;20140;-51
2023/04/12 08:22:35;;;;;;;14.82;3.90;;;;;;;;;;5064422;28;20602;-51
2023/04/12 08:25:02;;;;;;;13.15;3.83;;;;;;;;;;5061758;28;20057;-54
2023/04/12 08:27:28;;;;;;;11.10;3.60;;;;;;;;;;5063127;28;20049;-53
2023/04/12 08:29:55;;;;;;;11.48;3.70;;;;;;;;;;5068985;28;20597;-49
2023/04/12 08:32:21;;;;;;;12.38;3.85;;;;;;;;;;5064989;28;20060;-53
2023/04/12 08:34:48;;;;;;;14.98;3.72;;;;;;;;;;5059723;28;20191;-51
2023/04/12 08:37:15;;;;;;;16.48;4.70;;;;;;;;;;5063040;28;20052;-50
2023/04/12 08:39:42;;;;;;;13.50;3.85;;;;;;;;;;5062189;28;20045;-54
2023/04/12 08:42:08;;;;;;;12.02;4.55;;;;;;;;;;5066455;28;20439;-52
2023/04/12 08:44:36;;;;;;;13.00;3.13;;;;;;;;;;5066639;28;20124;-54
2023/04/12 08:47:04;;;;;;;14.18;3.53;;;;;;;;;;5062926;28;20061;-50
2023/04/12 08:49:31;;;;;;;14.13;3.42;;;;;;;;;;5054148;28;20184;-49
2023/04/12 08:51:59;;;;;;;26.02;4.20;;;;;;;;;;5066899;28;20057;-50
2023/04/12 08:54:26;;;;;;;15.70;3.17;;;;;;;;;;5064570;28;20424;-51
2023/04/12 08:56:55;;;;;;;14.25;3.45;;;;;;;;;;5065502;28;20057;-49
2023/04/12 08:59:21;;;;;;;17.30;4.72;;;;;;;;;;5066140;28;20057;-51
2023/04/12 09:01:48;;;;;;;11.88;3.25;;;;;;;;;;5066427;28;20057;-53
2023/04/12 09:04:15;;;;;;;17.40;3.40;;;;;;;;;;5066052;28;20068;-52
2023/04/12 09:06:42;;;;;;;15.02;3.63;;;;;;;;;;5065699;28;20053;-55
2023/04/12 09:09:08;;;;;;;16.65;4.13;;;;;;;;;;5065671;28;20088;-55
2023/04/12 09:11:35;;;;;;;24.58;4.53;;;;;;;;;;5066124;28;20059;-53
2023/04/12 09:14:01;;;;;;;16.58;3.92;;;;;;;;;;5065183;28;20128;-56
2023/04/12 09:16:38;;;;;;;11.07;3.42;;;;;;;;;;5063831;28;21450;-54
2023/04/12 09:19:06;;;;;;;15.57;4.22;;;;;;;;;;5061556;28;20052;-53
2023/04/12 09:21:36;;;;;;;16.83;4.32;;;;;;;;;;5081025;28;20111;-55
2023/04/12 09:24:09;;;;;;;13.50;3.25;;;;;;;;;;5085918;28;20107;-55
2023/04/12 09:26:40;;;;;;;19.30;4.15;;;;;;;;;;5081544;28;20048;-55
2023/04/12 09:29:20;;;;;;;12.38;3.60;;;;;;;;;;5065603;28;20937;-53
2023/04/12 09:32:03;;;;;;;8.65;2.63;;;;;;;;;;5078132;28;20057;-56
2023/04/12 09:34:30;;;;;;;9.65;3.42;;;;;;;;;;5065833;28;20146;-54
2023/04/12 09:36:57;;;;;;;16.58;3.20;;;;;;;;;;5064658;28;20092;-53
2023/04/12 09:39:33;;;;;;;22.90;3.78;;;;;;;;;;5065504;28;20053;-54
2023/04/12 09:42:10;;;;;;;13.30;2.42;;;;;;;;;;5065829;28;20053;-55
2023/04/12 09:44:57;;;;;;;20.17;2.67;;;;;;;;;;5059987;28;20149;-55
2023/04/12 09:47:44;;;;;;;13.13;3.60;;;;;;;;;;5062849;28;20153;-56
2023/04/12 09:50:19;;;;;;;17.70;3.90;;;;;;;;;;5060217;28;20140;-55
2023/04/12 09:52:45;;;;;;;11.10;2.42;;;;;;;;;;5059450;28;20495;-55
2023/04/12 09:55:12;;;;;;;19.13;3.17;;;;;;;;;;5082659;28;20095;-54
2023/04/12 09:57:42;;;;;;;16.52;2.65;;;;;;;;;;5086118;28;20076;-55
2023/04/12 10:00:12;;;;;;;12.23;2.80;;;;;;;;;;5065533;28;20072;-54
2023/04/12 10:02:40;;;;;;;33.20;6.38;;;;;;;;;;5065483;28;20053;-53
2023/04/12 10:05:11;;;;;;;12.77;2.80;;;;;;;;;;5065165;28;20052;-53
2023/04/12 10:07:39;;;;;;;15.88;2.88;;;;;;;;;;5073688;28;20057;-56
2023/04/12 10:10:07;;;;;;;13.63;2.72;;;;;;;;;;5082707;28;20060;-54
2023/04/12 10:12:35;;;;;;;15.38;3.83;;;;;;;;;;5085741;28;20136;-52
2023/04/12 10:15:04;;;;;;;12.40;2.30;;;;;;;;;;5082778;28;20048;-55
2023/04/12 10:17:31;;;;;;;21.67;3.20;;;;;;;;;;5071843;28;20059;-56
2023/04/12 10:19:58;;;;;;;9.07;1.75;;;;;;;;;;5085804;28;20060;-51
2023/04/12 10:22:24;;;;;;;13.10;2.33;;;;;;;;;;5078271;28;20107;-52
2023/04/12 10:24:51;;;;;;;11.23;2.42;;;;;;;;;;5084740;28;20507;-51
2023/04/12 10:27:27;;;;;;;12.80;2.58;;;;;;;;;;5078746;28;20055;-53
2023/04/12 10:29:53;;;;;;;12.98;2.53;;;;;;;;;;5061632;28;20087;-54
2023/04/12 10:32:21;;;;;;;11.80;2.13;;;;;;;;;;5063995;28;20053;-51
2023/04/12 10:34:52;;;;;;;14.93;2.75;;;;;;;;;;5073408;28;20521;-53
2023/04/12 10:37:18;;;;;;;10.68;2.45;;;;;;;;;;5076816;28;20142;-53
2023/04/12 10:39:51;;;;;;;12.52;1.98;;;;;;;;;;5089108;28;20147;-55
2023/04/12 10:42:21;;;;;;;13.30;2.50;;;;;;;;;;5089058;28;20052;-51
2023/04/12 10:44:49;;;;;;;12.82;2.45;;;;;;;;;;5067842;28;20752;-54
2023/04/12 10:47:16;;;;;;;17.27;3.03;;;;;;;;;;5068712;28;20096;-49
2023/04/12 10:50:01;;;;;;;15.38;2.47;;;;;;;;;;5077968;28;20134;-51
2023/04/12 10:52:27;;;;;;;16.05;3.15;;;;;;;;;;5075917;28;20052;-51
2023/04/12 10:54:54;;;;;;;17.73;2.63;;;;;;;;;;5077327;28;20092;-53
2023/04/12 10:57:40;;;;;;;13.02;3.25;;;;;;;;;;5085597;28;20102;-52
2023/04/12 11:00:07;;;;;;;12.13;2.38;;;;;;;;;;5080384;28;20053;-53
2023/04/12 11:02:35;;;;;;;21.50;2.90;;;;;;;;;;5049715;28;20804;-53
2023/04/12 11:05:08;;;;;;;15.73;3.33;;;;;;;;;;5067697;28;20049;-52
2023/04/12 11:07:40;;;;;;;15.98;2.80;;;;;;;;;;5076658;28;20586;-52
2023/04/12 11:10:20;;;;;;;17.20;3.13;;;;;;;;;;5056774;28;20089;-52
2023/04/12 11:12:53;;;;;;;11.82;2.75;;;;;;;;;;5051419;28;20136;-51
2023/04/12 11:15:19;;;;;;;17.25;3.20;;;;;;;;;;5062551;28;20057;-52
2023/04/12 11:17:53;;;;;;;20.65;3.58;;;;;;;;;;5057589;28;20111;-53
2023/04/12 11:20:20;;;;;;;11.98;2.80;;;;;;;;;;5062985;28;20982;-53
2023/04/12 11:22:47;;;;;;;14.80;2.60;;;;;;;;;;5067407;28;20228;-53
2023/04/12 11:25:15;;;;;;;17.45;3.35;;;;;;;;;;5064663;28;20535;-50
2023/04/12 11:27:47;;;;;;;15.57;2.22;;;;;;;;;;5065007;28;20111;-52
2023/04/12 11:30:14;;;;;;;18.20;3.55;;;;;;;;;;5064133;28;20064;-50
2023/04/12 11:32:43;;;;;;;16.63;3.22;;;;;;;;;;5071121;28;20091;-55
2023/04/12 11:35:09;;;;;;;17.98;2.67;;;;;;;;;;5063802;28;20056;-53
2023/04/12 11:37:36;;;;;;;11.68;3.22;;;;;;;;;;5058526;28;20048;-56
2023/04/12 11:40:06;;;;;;;17.40;2.97;;;;;;;;;;5061857;28;20063;-54
2023/04/12 11:42:33;;;;;;;14.02;2.80;;;;;;;;;;5063883;28;20096;-51
2023/04/12 11:44:59;;;;;;;13.38;3.30;;;;;;;;;;5071299;28;20055;-52
2023/04/12 11:47:41;;;;;;;10.32;2.42;;;;;;;;;;5059489;28;20131;-53
2023/04/12 11:50:07;;;;;;;16.05;2.72;;;;;;;;;;5060718;28;20049;-55
2023/04/12 11:52:34;;;;;;;10.57;2.17;;;;;;;;;;5062878;28;20092;-50
2023/04/12 11:55:03;;;;;;;14.48;3.83;;;;;;;;;;5061985;28;20132;-51
2023/04/12 11:57:30;;;;;;;14.93;2.88;;;;;;;;;;5065942;28;20048;-53
2023/04/12 11:59:59;;;;;;;9.98;2.47;;;;;;;;;;5062449;28;20060;-51
2023/04/12 12:02:26;;;;;;;13.90;2.08;;;;;;;;;;5061735;28;20053;-54
2023/04/12 12:05:00;;;;;;;7.80;2.65;;;;;;;;;;5063691;28;20561;-53
2023/04/12 12:07:26;;;;;;;8.02;1.92;;;;;;;;;;5066757;28;20160;-53
2023/04/12 12:09:53;;;;;;;13.35;2.45;;;;;;;;;;5060436;28;20077;-53
2023/04/12 12:12:22;;;;;;;7.20;1.60;;;;;;;;;;5066379;28;20233;-51
2023/04/12 12:14:48;;;;;;;7.63;1.52;;;;;;;;;;5059658;28;20053;-52
2023/04/12 12:17:15;;;;;;;10.75;2.05;;;;;;;;;;5061366;28;20541;-53
2023/04/12 12:19:42;;;;;;;13.10;1.48;;;;;;;;;;5063753;28;20049;-53
2023/04/12 12:22:21;;;;;;;6.47;1.92;;;;;;;;;;5055655;28;20077;-53
2023/04/12 12:24:53;;;;;;;9.77;2.88;;;;;;;;;;5063841;28;20136;-51
2023/04/12 12:27:24;;;;;;;6.22;1.67;;;;;;;;;;5065220;28;20053;-51
2023/04/12 12:29:52;;;;;;;7.93;2.05;;;;;;;;;;5065426;28;20060;-55
2023/04/12 12:32:19;;;;;;;8.30;1.70;;;;;;;;;;5061816;28;20777;-56
2023/04/12 12:34:49;;;;;;;7.78;1.65;;;;;;;;;;5062188;28;20052;-52
2023/04/12 12:37:18;;;;;;;10.48;1.88;;;;;;;;;;5070612;28;20079;-56
2023/04/12 12:40:00;;;;;;;8.75;1.65;;;;;;;;;;5061350;28;20136;-54
2023/04/12 12:42:26;;;;;;;6.32;1.77;;;;;;;;;;5060016;28;20095;-54
2023/04/12 12:44:53;;;;;;;10.68;1.63;;;;;;;;;;5059917;28;20511;-55
2023/04/12 12:47:19;;;;;;;4.35;1.10;;;;;;;;;;5065491;28;20110;-56
2023/04/12 12:49:46;;;;;;;6.70;1.30;;;;;;;;;;5062555;28;20049;-53
2023/04/12 12:52:12;;;;;;;2.20;0.82;;;;;;;;;;5065883;28;20048;-54
2023/04/12 12:54:42;;;;;;;4.97;1.88;;;;;;;;;;5060777;28;20065;-53
2023/04/12 12:57:09;;;;;;;5.22;1.15;;;;;;;;;;5057614;28;20106;-55
2023/04/12 12:59:35;;;;;;;3.13;0.98;;;;;;;;;;5063676;28;20059;-54
2023/04/12 13:02:04;;;;;;;7.93;1.50;;;;;;;;;;5059757;28;20057;-54
2023/04/12 13:04:30;;;;;;;5.20;1.27;;;;;;;;;;5066085;28;20119;-51
2023/04/12 13:06:57;;;;;;;3.63;1.10;;;;;;;;;;5062479;28;20364;-53
2023/04/12 13:09:24;;;;;;;4.60;1.40;;;;;;;;;;5061517;28;20272;-56
2023/04/12 13:11:50;;;;;;;4.82;1.35;;;;;;;;;;5063360;28;20053;-54
2023/04/12 13:14:17;;;;;;;6.22;1.13;;;;;;;;;;5063393;28;20052;-51
2023/04/12 13:16:44;;;;;;;3.30;0.88;;;;;;;;;;5047824;28;20141;-55
2023/04/12 13:19:11;;;;;;;4.90;0.80;;;;;;;;;;5060785;28;20053;-54
2023/04/12 13:21:38;;;;;;;5.53;1.20;;;;;;;;;;5054881;28;20044;-55
2023/04/12 13:24:04;;;;;;;5.00;1.40;;;;;;;;;;5061756;28;20057;-55
2023/04/12 13:26:31;;;;;;;4.30;1.48;;;;;;;;;;5061012;28;20525;-56
2023/04/12 13:28:57;;;;;;;1.65;0.70;;;;;;;;;;5060540;28;20553;-55
2023/04/12 13:31:24;;;;;;;1.23;0.80;;;;;;;;;;5061200;28;20660;-55
2023/04/12 13:33:51;;;;;;;7.68;1.17;;;;;;;;;;5057602;28;20053;-54
2023/04/12 13:36:17;;;;;;;2.28;0.90;;;;;;;;;;5057993;28;20517;-55
2023/04/12 13:38:43;;;;;;;3.05;1.23;;;;;;;;;;5062004;28;20610;-54
2023/04/12 13:41:10;;;;;;;4.32;0.85;;;;;;;;;;5062861;28;20057;-54
2023/04/12 13:43:36;;;;;;;3.72;1.13;;;;;;;;;;5064839;28;20067;-54
2023/04/12 13:46:03;;;;;;;2.28;0.50;;;;;;;;;;5061941;28;20143;-52
2023/04/12 13:48:29;;;;;;;5.10;1.10;;;;;;;;;;5060252;28;20503;-53
2023/04/12 13:50:57;;;;;;;5.18;0.82;;;;;;;;;;5060411;28;20064;-53
2023/04/12 13:53:23;;;;;;;3.80;1.15;;;;;;;;;;5061284;28;20080;-55
2023/04/12 13:55:50;;;;;;;2.92;0.70;;;;;;;;;;5060570;28;20051;-55
2023/04/12 13:58:17;;;;;;;3.92;1.05;;;;;;;;;;5059584;28;20176;-55
2023/04/12 14:00:43;;;;;;;4.85;0.82;;;;;;;;;;5060639;28;20061;-56
2023/04/12 14:03:10;;;;;;;5.25;1.40;;;;;;;;;;5060998;28;20518;-52
2023/04/12 14:05:36;;;;;;;3.90;1.00;;;;;;;;;;5059911;28;20049;-56
2023/04/12 14:08:03;;;;;;;2.60;0.77;;;;;;;;;;5062028;28;20053;-54
2023/04/12 14:10:29;;;;;;;2.22;0.65;;;;;;;;;;5060614;28;20076;-54
2023/04/12 14:12:56;;;;;;;2.22;0.85;;;;;;;;;;5062251;28;20132;-51
2023/04/12 14:15:22;;;;;;;2.90;0.90;;;;;;;;;;5050766;28;20136;-54
2023/04/12 14:17:48;;;;;;;7.55;1.00;;;;;;;;;;5069797;28;20130;-52
2023/04/12 14:20:15;;;;;;;5.85;0.88;;;;;;;;;;5064606;28;20065;-53
2023/04/12 14:22:44;;;;;;;1.92;0.55;;;;;;;;;;5063790;28;20064;-53
2023/04/12 14:25:11;;;;;;;3.80;0.60;;;;;;;;;;5062041;28;20145;-56
2023/04/12 14:27:38;;;;;;;3.45;1.00;;;;;;;;;;5065353;28;20119;-51
2023/04/12 14:30:05;;;;;;;2.45;0.70;;;;;;;;;;5061730;28;20049;-53
2023/04/12 14:32:31;;;;;;;3.40;1.10;;;;;;;;;;5064346;28;20065;-53
2023/04/12 14:34:58;;;;;;;4.53;1.08;;;;;;;;;;5063978;28;20061;-53
2023/04/12 14:37:24;;;;;;;3.10;0.73;;;;;;;;;;5065294;28;20053;-55
2023/04/12 14:39:53;;;;;;;2.22;0.75;;;;;;;;;;5068817;28;20068;-52
2023/04/12 14:42:20;;;;;;;1.45;0.52;;;;;;;;;;5060702;28;20077;-51
2023/04/12 14:44:46;;;;;;;2.80;0.63;;;;;;;;;;5063981;28;20172;-51